createdAt,value
2019-04-20T00:01:58.189Z,38.41
2019-04-20T00:04:27.186Z,38.42
2019-04-20T00:06:54.375Z,38.55
2019-04-20T00:09:25.816Z,38.63
2019-04-20T00:12:02.437Z,38.66
2019-04-20T00:14:24.595Z,38.71
2019-04-20T00:16:48.331Z,38.86
2019-04-20T00:19:22.649Z,39.05
2019-04-20T00:21:57.477Z,39.21
2019-04-20T00:24:30.629Z,39.39
2019-04-20T00:27:15.967Z,39.49
2019-04-20T00:29:41.149Z,39.57
2019-04-20T00:32:02.830Z,39.67
2019-04-20T00:34:29.456Z,39.61
2019-04-20T00:36:51.852Z,39.62
2019-04-20T00:39:20.221Z,39.72
2019-04-20T00:41:53.744Z,39.79
2019-04-20T00:44:23.303Z,39.87
2019-04-20T00:47:00.993Z,39.92
2019-04-20T00:49:30.483Z,39.92
2019-04-20T00:52:13.139Z,39.95
2019-04-20T00:54:13.579Z,40.02
2019-04-20T00:56:41.324Z,39.95
2019-04-20T00:59:25.387Z,39.92
2019-04-20T01:02:02.061Z,39.97
2019-04-20T01:04:29.858Z,40.06
2019-04-20T01:07:08.260Z,40.05
2019-04-20T01:09:41.790Z,40.13
2019-04-20T01:12:14.816Z,40.12
2019-04-20T01:14:43.701Z,40.17
2019-04-20T01:17:11.794Z,40.27
2019-04-20T01:19:35.801Z,40.38
2019-04-20T01:22:07.999Z,40.38
2019-04-20T01:24:39.169Z,40.45
2019-04-20T01:27:04.125Z,40.52
2019-04-20T01:29:38.721Z,40.63
2019-04-20T01:32:10.583Z,40.83
2019-04-20T01:34:41.407Z,40.96
2019-04-20T01:37:14.438Z,41.08
2019-04-20T01:39:35.497Z,41.19
2019-04-20T01:41:56.105Z,41.26
2019-04-20T01:44:28.155Z,41.33
2019-04-20T01:46:57.920Z,41.43
2019-04-20T01:49:25.363Z,41.54
2019-04-20T01:52:00.965Z,41.65
2019-04-20T01:54:40.930Z,41.79
2019-04-20T01:57:06.049Z,41.95
2019-04-20T01:59:46.048Z,42.01
2019-04-20T02:02:29.417Z,42.14
2019-04-20T02:05:08.780Z,42.20
2019-04-20T02:07:35.506Z,42.37
2019-04-20T02:10:02.839Z,42.62
2019-04-20T02:12:31.155Z,42.77
2019-04-20T02:15:00.467Z,42.77
2019-04-20T02:17:33.072Z,42.73
2019-04-20T02:20:12.540Z,42.70
2019-04-20T02:22:44.902Z,42.71
2019-04-20T02:24:52.766Z,42.71
2019-04-20T02:27:31.305Z,42.72
2019-04-20T02:30:13.441Z,42.78
2019-04-20T02:32:59.278Z,42.92
2019-04-20T02:36:04.160Z,42.99
2019-04-20T02:38:54.601Z,43.08
2019-04-20T02:41:20.161Z,43.16
2019-04-20T02:43:49.804Z,43.37
2019-04-20T02:46:14.788Z,43.47
2019-04-20T02:48:37.338Z,43.54
2019-04-20T02:50:58.745Z,43.61
2019-04-20T02:53:29.829Z,43.68
2019-04-20T02:56:06.325Z,43.83
2019-04-20T02:58:29.128Z,43.99
2019-04-20T03:00:46.876Z,44.21
2019-04-20T03:03:08.082Z,44.32
2019-04-20T03:05:32.985Z,44.30
2019-04-20T03:08:11.270Z,44.23
2019-04-20T03:10:46.418Z,44.17
2019-04-20T03:13:15.882Z,44.12
2019-04-20T03:15:41.865Z,44.15
2019-04-20T03:18:11.739Z,44.19
2019-04-20T03:20:43.501Z,44.29
2019-04-20T03:26:05.317Z,44.40
2019-04-20T03:28:42.964Z,44.47
2019-04-20T03:34:13.383Z,44.62
2019-04-20T03:36:25.335Z,44.76
2019-04-20T03:38:48.274Z,44.88
2019-04-20T03:41:08.183Z,45.00
2019-04-20T03:43:24.527Z,45.06
2019-04-20T03:45:59.569Z,45.06
2019-04-20T03:48:35.899Z,45.07
2019-04-20T03:51:08.940Z,45.04
2019-04-20T03:53:39.309Z,45.04
2019-04-20T03:56:29.265Z,45.06
2019-04-20T03:59:11.596Z,45.11
2019-04-20T04:02:25.179Z,45.12
2019-04-20T04:04:34.434Z,45.18
2019-04-20T04:06:50.946Z,45.21
2019-04-20T04:09:25.722Z,45.42
2019-04-20T04:11:56.002Z,45.65
2019-04-20T04:14:11.589Z,45.94
2019-04-20T04:16:46.982Z,46.19
2019-04-20T04:19:16.411Z,46.43
2019-04-20T04:21:53.903Z,46.56
2019-04-20T04:24:22.912Z,46.64
2019-04-20T04:26:51.216Z,46.74
2019-04-20T04:29:28.225Z,46.82
2019-04-20T04:32:01.358Z,46.97
2019-04-20T04:34:24.974Z,47.12
2019-04-20T04:36:57.589Z,47.20
2019-04-20T04:39:25.244Z,47.24
2019-04-20T04:41:51.880Z,47.27
2019-04-20T04:44:17.691Z,47.29
2019-04-20T04:46:29.320Z,47.31
2019-04-20T04:49:06.870Z,47.26
2019-04-20T04:51:37.842Z,47.17
2019-04-20T04:54:02.865Z,47.15
2019-04-20T04:56:25.617Z,47.16
2019-04-20T04:58:53.717Z,47.14
2019-04-20T05:01:26.019Z,47.13
2019-04-20T05:04:14.793Z,47.10
2019-04-20T05:06:33.084Z,47.08
2019-04-20T05:08:55.046Z,47.14
2019-04-20T05:11:19.603Z,47.12
2019-04-20T05:13:54.714Z,47.16
2019-04-20T05:16:35.958Z,47.23
2019-04-20T05:19:11.915Z,47.26
2019-04-20T05:22:01.096Z,47.29
2019-04-20T05:24:22.668Z,47.26
2019-04-20T05:27:03.064Z,47.23
2019-04-20T05:29:17.123Z,47.31
2019-04-20T05:31:45.980Z,47.38
2019-04-20T05:34:25.708Z,47.44
2019-04-20T05:36:57.525Z,47.53
2019-04-20T05:39:32.993Z,47.64
2019-04-20T05:41:54.177Z,47.62
2019-04-20T05:44:27.644Z,47.64
2019-04-20T05:47:02.855Z,47.69
2019-04-20T05:49:31.738Z,47.64
2019-04-20T05:51:54.353Z,47.61
2019-04-20T05:54:26.837Z,47.56
2019-04-20T05:57:00.783Z,47.59
2019-04-20T05:59:28.387Z,47.60
2019-04-20T06:02:01.762Z,47.60
2019-04-20T06:04:42.661Z,47.63
2019-04-20T06:06:56.395Z,47.62
2019-04-20T06:09:28.565Z,47.56
2019-04-20T06:12:07.510Z,47.62
2019-04-20T06:14:43.211Z,47.61
2019-04-20T06:17:28.470Z,47.47
2019-04-20T06:20:00.465Z,47.39
2019-04-20T06:22:41.459Z,47.43
2019-04-20T06:25:33.358Z,47.48
2019-04-20T06:27:45.051Z,47.45
2019-04-20T06:30:11.009Z,47.55
2019-04-20T06:33:26.267Z,47.66
2019-04-20T06:36:13.954Z,47.64
2019-04-20T06:38:38.673Z,47.33
2019-04-20T06:41:01.117Z,47.22
2019-04-20T06:43:19.742Z,47.18
2019-04-20T06:45:51.354Z,47.10
2019-04-20T06:48:21.486Z,46.99
2019-04-20T06:50:44.344Z,46.86
2019-04-20T06:53:42.187Z,46.78
2019-04-20T06:56:10.007Z,46.72
2019-04-20T07:01:09.293Z,46.41
2019-04-20T07:03:42.149Z,46.18
2019-04-20T07:06:26.333Z,46.04
2019-04-20T07:08:52.307Z,45.85
2019-04-20T07:11:04.667Z,45.47
2019-04-20T07:13:24.045Z,45.18
2019-04-20T07:16:04.053Z,44.98
2019-04-20T07:19:02.355Z,44.82
2019-04-20T07:22:01.870Z,44.72
2019-04-20T07:24:17.052Z,44.58
2019-04-20T07:26:50.254Z,44.33
2019-04-20T07:29:15.515Z,44.11
2019-04-20T07:31:41.352Z,43.91
2019-04-20T07:34:10.442Z,43.84
2019-04-20T07:36:51.502Z,43.84
2019-04-20T07:39:18.658Z,43.77
2019-04-20T07:42:06.432Z,43.69
2019-04-20T07:44:10.380Z,43.75
2019-04-20T07:46:56.375Z,43.76
2019-04-20T07:49:07.335Z,43.64
2019-04-20T07:51:25.974Z,43.37
2019-04-20T07:54:17.927Z,43.29
2019-04-20T07:56:37.051Z,42.57
2019-04-20T07:58:52.684Z,42.08
2019-04-20T08:02:00.634Z,42.12
2019-04-20T08:04:28.565Z,41.69
2019-04-20T08:06:47.000Z,41.50
2019-04-20T08:09:21.949Z,41.28
2019-04-20T08:12:03.014Z,41.23
2019-04-20T08:14:30.219Z,41.20
2019-04-20T08:19:33.515Z,40.47
2019-04-20T08:22:02.598Z,40.12
2019-04-20T08:24:21.536Z,39.75
2019-04-20T08:26:44.364Z,39.63
2019-04-20T08:29:21.485Z,39.04
2019-04-20T08:32:11.734Z,38.44
2019-04-20T08:34:43.099Z,38.32
2019-04-20T08:37:07.362Z,37.80
2019-04-20T08:39:53.374Z,37.29
2019-04-20T08:42:07.446Z,37.00
2019-04-20T08:47:14.872Z,35.98
2019-04-20T08:49:35.520Z,35.74
2019-04-20T08:52:18.842Z,35.76
2019-04-20T08:54:26.426Z,35.50
2019-04-20T08:56:47.001Z,35.29
2019-04-20T08:59:11.531Z,34.93
2019-04-20T09:01:40.687Z,35.21
2019-04-20T09:04:15.337Z,34.94
2019-04-20T09:06:55.811Z,34.33
2019-04-20T09:09:40.340Z,33.53
2019-04-20T09:11:55.106Z,33.12
2019-04-20T09:14:21.293Z,33.03
2019-04-20T09:16:59.173Z,33.33
2019-04-20T09:19:32.463Z,31.71
2019-04-20T09:22:09.834Z,32.03
2019-04-20T09:24:45.135Z,31.39
2019-04-20T09:27:10.303Z,29.86
2019-04-20T09:29:38.376Z,29.75
2019-04-20T09:32:20.889Z,30.26
2019-04-20T09:34:57.428Z,30.32
2019-04-20T09:37:43.157Z,29.96
2019-04-20T09:40:42.934Z,29.44
2019-04-20T09:43:02.641Z,29.85
2019-04-20T09:45:51.394Z,29.42
2019-04-20T09:48:23.061Z,28.33
2019-04-20T09:51:05.048Z,27.79
2019-04-20T09:53:24.747Z,27.38
2019-04-20T09:55:59.017Z,28.18
2019-04-20T09:58:24.180Z,27.92
2019-04-20T10:01:00.805Z,27.17
2019-04-20T10:03:13.086Z,26.98
2019-04-20T10:05:41.197Z,27.17
2019-04-20T10:08:10.053Z,27.03
2019-04-20T10:10:41.747Z,26.22
2019-04-20T10:13:07.319Z,24.70
2019-04-20T10:15:35.395Z,25.28
2019-04-20T10:18:03.719Z,25.36
2019-04-20T10:20:34.463Z,25.43
2019-04-20T10:23:00.518Z,24.78
2019-04-20T10:25:28.692Z,24.66
2019-04-20T10:27:55.890Z,24.49
2019-04-20T10:30:23.102Z,24.70
2019-04-20T10:32:53.788Z,25.38
2019-04-20T10:35:19.318Z,25.06
2019-04-20T10:37:51.582Z,24.63
2019-04-20T10:40:34.445Z,23.90
2019-04-20T10:42:48.108Z,23.80
2019-04-20T10:45:15.209Z,24.13
2019-04-20T10:47:43.163Z,23.94
2019-04-20T10:50:11.408Z,23.92
2019-04-20T10:52:41.587Z,24.29
2019-04-20T10:55:08.761Z,24.32
2019-04-20T10:57:35.840Z,24.50
2019-04-20T11:00:03.796Z,24.55
2019-04-20T11:02:34.958Z,24.84
2019-04-20T11:05:02.562Z,25.20
2019-04-20T11:07:30.376Z,24.83
2019-04-20T11:10:07.881Z,24.16
2019-04-20T11:12:26.578Z,24.01
2019-04-20T11:14:54.476Z,23.94
2019-04-20T11:17:22.396Z,24.00
2019-04-20T11:19:49.565Z,24.23
2019-04-20T11:22:16.741Z,24.35
2019-04-20T11:24:44.142Z,24.54
2019-04-20T11:27:12.055Z,24.76
2019-04-20T11:29:40.281Z,24.93
2019-04-20T11:32:07.556Z,23.91
2019-04-20T11:34:38.428Z,23.42
2019-04-20T11:37:04.662Z,23.73
2019-04-20T11:39:32.905Z,24.17
2019-04-20T11:42:01.463Z,24.57
2019-04-20T11:44:31.246Z,24.11
2019-04-20T11:46:58.695Z,24.11
2019-04-20T11:49:25.897Z,23.36
2019-04-20T11:51:52.996Z,23.97
2019-04-20T11:54:20.071Z,24.14
2019-04-20T11:56:47.347Z,23.17
2019-04-20T11:59:27.384Z,23.07
2019-04-20T12:02:20.113Z,22.65
2019-04-20T12:04:52.016Z,22.33
2019-04-20T12:07:15.097Z,22.36
2019-04-20T12:09:43.733Z,22.05
2019-04-20T12:12:23.452Z,22.07
2019-04-20T12:14:40.923Z,22.27
2019-04-20T12:17:08.091Z,22.30
2019-04-20T12:19:36.278Z,21.80
2019-04-20T12:22:05.496Z,21.82
2019-04-20T12:24:33.229Z,21.71
2019-04-20T12:27:00.758Z,21.58
2019-04-20T12:29:28.051Z,21.50
2019-04-20T12:31:59.170Z,21.37
2019-04-20T12:34:26.398Z,21.39
2019-04-20T12:36:53.654Z,21.23
2019-04-20T12:39:22.314Z,21.90
2019-04-20T12:41:53.602Z,21.47
2019-04-20T12:44:19.708Z,21.19
2019-04-20T12:46:47.746Z,21.36
2019-04-20T12:49:15.845Z,21.68
2019-04-20T12:51:50.764Z,21.28
2019-04-20T12:54:11.972Z,21.25
2019-04-20T12:56:40.371Z,21.32
2019-04-20T12:59:07.703Z,21.82
2019-04-20T13:01:41.444Z,21.61
2019-04-20T13:04:08.068Z,22.40
2019-04-20T13:06:39.133Z,22.68
2019-04-20T13:09:10.623Z,22.96
2019-04-20T13:11:51.668Z,22.83
2019-04-20T13:14:53.635Z,21.95
2019-04-20T13:17:22.063Z,21.79
2019-04-20T13:19:49.295Z,21.20
2019-04-20T13:22:17.046Z,22.04
2019-04-20T13:24:45.231Z,22.57
2019-04-20T13:27:14.190Z,22.66
2019-04-20T13:29:42.699Z,22.64
2019-04-20T13:32:10.229Z,22.82
2019-04-20T13:34:38.165Z,22.39
2019-04-20T13:37:06.398Z,21.55
2019-04-20T13:39:33.551Z,21.68
2019-04-20T13:42:11.495Z,21.33
2019-04-20T13:44:30.670Z,21.54
2019-04-20T13:46:58.823Z,21.87
2019-04-20T13:49:27.106Z,22.01
2019-04-20T13:51:54.913Z,21.90
2019-04-20T13:54:24.883Z,22.26
2019-04-20T13:56:52.705Z,22.41
2019-04-20T13:59:25.853Z,22.47
2019-04-20T14:02:12.983Z,22.26
2019-04-20T14:04:52.877Z,21.92
2019-04-20T14:07:22.008Z,21.75
2019-04-20T14:09:49.154Z,22.29
2019-04-20T14:12:26.152Z,22.21
2019-04-20T14:14:45.246Z,21.95
2019-04-20T14:17:15.008Z,22.21
2019-04-20T14:19:45.224Z,22.42
2019-04-20T14:22:13.204Z,22.37
2019-04-20T14:24:40.437Z,21.99
2019-04-20T14:27:08.810Z,21.70
2019-04-20T14:29:36.992Z,21.25
2019-04-20T14:32:05.990Z,21.10
2019-04-20T14:34:33.206Z,20.69
2019-04-20T14:37:00.424Z,20.34
2019-04-20T14:39:28.008Z,20.35
2019-04-20T14:41:56.264Z,20.42
2019-04-20T14:44:23.708Z,19.62
2019-04-20T14:46:51.682Z,19.71
2019-04-20T14:49:20.846Z,19.69
2019-04-20T14:51:48.025Z,19.27
2019-04-20T14:54:15.358Z,19.46
2019-04-20T14:56:43.467Z,19.63
2019-04-20T14:59:31.658Z,19.97
2019-04-20T15:02:03.233Z,19.77
2019-04-20T15:04:32.046Z,19.30
2019-04-20T15:07:00.269Z,19.61
2019-04-20T15:09:28.691Z,20.29
2019-04-20T15:11:56.952Z,20.31
2019-04-20T15:14:24.884Z,20.19
2019-04-20T15:16:52.888Z,20.05
2019-04-20T15:19:54.911Z,19.80
2019-04-20T15:22:34.224Z,19.93
2019-04-20T15:25:01.301Z,20.03
2019-04-20T15:27:28.382Z,19.91
2019-04-20T15:29:56.133Z,19.91
2019-04-20T15:32:23.342Z,20.03
2019-04-20T15:34:50.943Z,20.19
2019-04-20T15:37:18.274Z,20.28
2019-04-20T15:39:47.463Z,20.25
2019-04-20T15:42:15.069Z,20.11
2019-04-20T15:44:43.029Z,20.10
2019-04-20T15:47:11.169Z,19.73
2019-04-20T15:49:39.868Z,19.80
2019-04-20T15:52:08.064Z,19.72
2019-04-20T15:54:35.666Z,19.66
2019-04-20T15:57:12.304Z,19.48
2019-04-20T15:59:32.601Z,19.58
2019-04-20T16:02:07.307Z,19.45
2019-04-20T16:04:54.332Z,19.42
2019-04-20T16:07:21.598Z,19.68
2019-04-20T16:09:48.670Z,19.82
2019-04-20T16:12:17.075Z,20.07
2019-04-20T16:14:45.796Z,20.13
2019-04-20T16:17:13.067Z,20.01
2019-04-20T16:19:50.881Z,20.13
2019-04-20T16:22:12.004Z,20.13
2019-04-20T16:24:44.847Z,20.06
2019-04-20T16:27:31.654Z,20.03
2019-04-20T16:29:59.924Z,19.94
2019-04-20T16:32:27.084Z,19.86
2019-04-20T16:34:54.163Z,19.84
2019-04-20T16:37:22.356Z,19.80
2019-04-20T16:39:50.423Z,20.08
2019-04-20T16:42:18.266Z,19.90
2019-04-20T16:44:45.523Z,20.00
2019-04-20T16:47:12.630Z,20.47
2019-04-20T16:49:41.054Z,20.45
2019-04-20T16:52:08.317Z,20.65
2019-04-20T16:54:35.690Z,20.60
2019-04-20T16:57:04.592Z,20.66
2019-04-20T16:59:39.016Z,20.49
2019-04-20T17:02:02.356Z,20.67
2019-04-20T17:04:30.833Z,20.99
2019-04-20T17:07:18.434Z,21.34
2019-04-20T17:09:47.363Z,21.25
2019-04-20T17:12:15.448Z,21.31
2019-04-20T17:14:43.311Z,21.34
2019-04-20T17:17:11.570Z,21.63
2019-04-20T17:19:39.874Z,21.89
2019-04-20T17:22:10.007Z,22.60
2019-04-20T17:24:39.952Z,23.37
2019-04-20T17:27:21.121Z,23.81
2019-04-20T17:30:10.879Z,24.13
2019-04-20T17:32:39.258Z,24.24
2019-04-20T17:35:17.845Z,24.83
2019-04-20T17:37:39.945Z,25.05
2019-04-20T17:40:26.495Z,25.43
2019-04-20T17:42:49.656Z,25.60
2019-04-20T17:45:10.414Z,25.71
2019-04-20T17:47:50.274Z,25.82
2019-04-20T17:50:20.269Z,25.83
2019-04-20T17:52:49.584Z,25.87
2019-04-20T17:55:22.229Z,26.01
2019-04-20T17:57:37.315Z,26.08
2019-04-20T18:00:15.737Z,26.18
2019-04-20T18:03:04.562Z,26.30
2019-04-20T18:05:39.079Z,26.35
2019-04-20T18:08:10.279Z,26.43
2019-04-20T18:10:30.310Z,26.61
2019-04-20T18:12:49.780Z,26.77
2019-04-20T18:15:33.554Z,26.96
2019-04-20T18:18:24.075Z,27.05
2019-04-20T18:20:54.813Z,27.12
2019-04-20T18:23:28.114Z,27.24
2019-04-20T18:26:10.951Z,27.35
2019-04-20T18:28:47.150Z,27.49
2019-04-20T18:31:01.023Z,27.59
2019-04-20T18:33:30.367Z,27.80
2019-04-20T18:35:56.274Z,27.84
2019-04-20T18:38:26.206Z,27.98
2019-04-20T18:41:02.136Z,28.11
2019-04-20T18:43:25.589Z,28.28
2019-04-20T18:46:08.211Z,28.40
2019-04-20T18:48:43.404Z,28.51
2019-04-20T18:50:50.761Z,28.59
2019-04-20T18:53:28.642Z,28.75
2019-04-20T18:55:55.136Z,28.89
2019-04-20T18:58:19.196Z,29.00
2019-04-20T19:00:51.563Z,29.14
2019-04-20T19:03:25.020Z,29.34
2019-04-20T19:05:45.768Z,29.42
2019-04-20T19:08:15.345Z,29.55
2019-04-20T19:10:43.584Z,29.63
2019-04-20T19:13:28.617Z,29.76
2019-04-20T19:16:32.753Z,29.77
2019-04-20T19:19:24.478Z,29.92
2019-04-20T19:21:45.847Z,29.97
2019-04-20T19:24:16.927Z,30.12
2019-04-20T19:26:50.890Z,30.33
2019-04-20T19:29:23.166Z,30.38
2019-04-20T19:32:05.773Z,30.46
2019-04-20T19:34:29.618Z,30.66
2019-04-20T19:36:58.135Z,30.77
2019-04-20T19:39:26.022Z,30.80
2019-04-20T19:41:49.476Z,30.86
2019-04-20T19:44:18.932Z,30.95
2019-04-20T19:47:00.937Z,31.05
2019-04-20T19:49:21.983Z,31.14
2019-04-20T19:52:10.895Z,31.42
2019-04-20T19:54:33.034Z,31.43
2019-04-20T19:56:48.602Z,31.59
2019-04-20T19:59:16.034Z,31.66
2019-04-20T20:01:35.718Z,31.74
2019-04-20T20:04:06.418Z,31.80
2019-04-20T20:06:41.388Z,32.24
2019-04-20T20:09:07.026Z,32.28
2019-04-20T20:11:36.381Z,32.30
2019-04-20T20:14:04.296Z,32.33
2019-04-20T20:16:50.631Z,32.34
2019-04-20T20:19:07.390Z,32.38
2019-04-20T20:21:42.781Z,32.46
2019-04-20T20:23:56.625Z,32.48
2019-04-20T20:26:31.101Z,32.63
2019-04-20T20:29:05.752Z,32.73
2019-04-20T20:31:33.495Z,32.79
2019-04-20T20:34:06.033Z,33.44
2019-04-20T20:36:23.826Z,33.23
2019-04-20T20:38:52.522Z,33.23
2019-04-20T20:41:26.323Z,33.33
2019-04-20T20:44:00.124Z,33.34
2019-04-20T20:46:28.467Z,33.40
2019-04-20T20:49:16.098Z,33.49
2019-04-20T20:51:39.419Z,33.56
2019-04-20T20:53:59.292Z,33.65
2019-04-20T20:56:22.339Z,33.80
2019-04-20T20:58:53.951Z,33.89
2019-04-20T21:01:20.483Z,34.03
2019-04-20T21:03:46.108Z,34.19
2019-04-20T21:06:11.789Z,34.27
2019-04-20T21:08:45.632Z,34.33
2019-04-20T21:11:13.192Z,34.43
2019-04-20T21:13:42.847Z,34.46
2019-04-20T21:16:14.728Z,34.53
2019-04-20T21:18:50.141Z,34.58
2019-04-20T21:21:17.656Z,34.64
2019-04-20T21:23:45.953Z,34.71
2019-04-20T21:26:07.049Z,34.76
2019-04-20T21:28:36.218Z,34.91
2019-04-20T21:31:12.505Z,34.95
2019-04-20T21:33:38.091Z,35.08
2019-04-20T21:36:05.005Z,35.16
2019-04-20T21:38:37.370Z,35.21
2019-04-20T21:41:08.878Z,35.35
2019-04-20T21:43:36.422Z,35.54
2019-04-20T21:46:06.668Z,35.73
2019-04-20T21:48:49.299Z,35.88
2019-04-20T21:51:19.086Z,36.03
2019-04-20T21:53:33.670Z,36.17
2019-04-20T21:56:01.526Z,36.23
2019-04-20T21:58:35.459Z,36.38
2019-04-20T22:01:09.498Z,36.52
2019-04-20T22:03:27.230Z,36.62
2019-04-20T22:06:04.763Z,36.79
2019-04-20T22:08:32.736Z,37.00
2019-04-20T22:10:59.941Z,37.07
2019-04-20T22:13:34.407Z,37.17
2019-04-20T22:16:01.996Z,37.27
2019-04-20T22:18:25.803Z,37.35
2019-04-20T22:21:06.929Z,37.44
2019-04-20T22:23:43.393Z,37.53
2019-04-20T22:26:07.761Z,37.68
2019-04-20T22:28:22.179Z,37.80
2019-04-20T22:30:50.366Z,38.01
2019-04-20T22:33:25.020Z,38.23
2019-04-20T22:35:55.548Z,38.33
2019-04-20T22:38:45.185Z,38.46
2019-04-20T22:41:13.805Z,38.54
2019-04-20T22:43:39.771Z,38.59
2019-04-20T22:46:05.647Z,38.68
2019-04-20T22:48:33.307Z,38.80
2019-04-20T22:51:19.608Z,38.90
2019-04-20T22:53:45.385Z,39.04
2019-04-20T22:56:23.101Z,39.25
2019-04-20T22:58:40.660Z,39.40
2019-04-20T23:01:04.285Z,39.51
2019-04-20T23:03:26.923Z,39.72
2019-04-20T23:05:56.440Z,39.83
2019-04-20T23:08:24.724Z,41.57
2019-04-20T23:10:53.427Z,41.83
2019-04-20T23:13:27.702Z,41.92
2019-04-20T23:15:55.414Z,41.60
2019-04-20T23:18:19.845Z,41.99
2019-04-20T23:20:47.953Z,42.03
2019-04-20T23:23:20.665Z,41.51
2019-04-20T23:25:45.205Z,41.64
2019-04-20T23:28:14.759Z,41.44
2019-04-20T23:30:43.680Z,41.37
2019-04-20T23:33:10.216Z,41.33
2019-04-20T23:35:42.631Z,41.37
2019-04-20T23:38:11.118Z,41.42
2019-04-20T23:40:35.279Z,41.41
2019-04-20T23:43:17.732Z,41.55
2019-04-20T23:45:57.102Z,41.63
2019-04-20T23:48:34.877Z,41.66
2019-04-20T23:51:10.059Z,41.71
2019-04-20T23:53:46.775Z,41.76
2019-04-20T23:55:58.020Z,41.87
2019-04-20T23:58:26.383Z,41.93
